createdAt,value
2018-07-13T00:00:56.784Z,17.93
2018-07-13T00:05:51.204Z,17.88
2018-07-13T00:10:45.596Z,18.03
2018-07-13T00:15:55.524Z,17.90
2018-07-13T00:20:49.956Z,17.75
2018-07-13T00:25:44.406Z,17.69
2018-07-13T00:30:38.522Z,17.60
2018-07-13T00:35:32.932Z,17.61
2018-07-13T00:40:27.355Z,17.56
2018-07-13T00:45:21.797Z,17.62
2018-07-13T00:50:16.220Z,17.58
2018-07-13T00:55:10.655Z,17.61
2018-07-13T01:00:04.828Z,17.46
2018-07-13T01:04:59.308Z,17.48
2018-07-13T01:09:53.745Z,17.44
2018-07-13T01:14:48.241Z,17.23
2018-07-13T01:19:42.668Z,17.19
2018-07-13T01:24:37.057Z,17.23
2018-07-13T01:29:31.483Z,17.22
2018-07-13T01:34:25.915Z,17.12
2018-07-13T01:39:20.335Z,17.00
2018-07-13T01:44:14.474Z,16.90
2018-07-13T01:49:08.867Z,16.87
2018-07-13T01:54:03.316Z,16.79
2018-07-13T01:58:57.708Z,16.73
2018-07-13T02:03:52.160Z,16.71
2018-07-13T02:08:46.760Z,16.69
2018-07-13T02:13:41.224Z,16.68
2018-07-13T02:18:35.609Z,16.69
2018-07-13T02:23:30.000Z,16.69
2018-07-13T02:28:24.408Z,16.63
2018-07-13T02:33:18.827Z,16.61
2018-07-13T02:38:13.289Z,16.60
2018-07-13T02:43:07.699Z,16.61
2018-07-13T02:48:02.124Z,16.69
2018-07-13T02:52:56.270Z,16.58
2018-07-13T02:57:50.692Z,16.53
2018-07-13T03:02:45.129Z,16.44
2018-07-13T03:07:39.553Z,16.40
2018-07-13T03:12:34.010Z,16.37
2018-07-13T03:17:28.493Z,16.27
2018-07-13T03:22:22.921Z,16.26
2018-07-13T03:27:17.361Z,16.23
2018-07-13T03:32:11.757Z,16.22
2018-07-13T03:37:06.188Z,16.21
2018-07-13T03:42:00.613Z,16.17
2018-07-13T03:46:55.004Z,16.11
2018-07-13T03:51:49.451Z,16.11
2018-07-13T03:56:43.913Z,16.09
2018-07-13T04:01:38.359Z,16.26
2018-07-13T04:06:32.873Z,16.39
2018-07-13T04:11:27.347Z,16.94
2018-07-13T04:16:21.948Z,17.80
2018-07-13T04:21:16.407Z,18.77
2018-07-13T04:26:10.916Z,19.51
2018-07-13T04:31:05.424Z,20.65
2018-07-13T04:35:59.881Z,21.54
2018-07-13T04:40:54.532Z,22.27
2018-07-13T04:45:49.024Z,23.17
2018-07-13T04:50:43.227Z,23.91
2018-07-13T04:55:37.765Z,24.07
2018-07-13T05:00:32.387Z,24.51
2018-07-13T05:05:26.966Z,26.02
2018-07-13T05:10:21.667Z,26.59
2018-07-13T05:15:16.182Z,27.24
2018-07-13T05:20:10.709Z,27.65
2018-07-13T05:25:05.956Z,27.71
2018-07-13T05:30:01.595Z,27.82
2018-07-13T05:34:57.060Z,28.49
2018-07-13T05:39:51.649Z,28.56
2018-07-13T05:44:46.500Z,29.00
2018-07-13T05:49:41.123Z,29.57
2018-07-13T05:54:35.430Z,29.73
2018-07-13T05:59:29.967Z,29.39
2018-07-13T06:04:24.451Z,30.14
2018-07-13T06:09:18.902Z,29.27
2018-07-13T06:14:13.336Z,29.65
2018-07-13T06:19:07.887Z,29.12
2018-07-13T06:24:02.792Z,29.57
2018-07-13T06:28:57.289Z,29.25
2018-07-13T06:33:51.737Z,28.69
2018-07-13T06:38:46.402Z,28.65
2018-07-13T06:43:41.526Z,28.51
2018-07-13T06:48:42.162Z,28.35
2018-07-13T06:53:40.616Z,28.23
2018-07-13T06:58:51.968Z,28.06
2018-07-13T07:04:57.386Z,27.88
2018-07-13T07:10:01.048Z,26.63
2018-07-13T07:14:56.896Z,27.13
2018-07-13T07:19:51.574Z,27.21
2018-07-13T07:24:46.206Z,27.49
2018-07-13T07:29:59.416Z,27.37
2018-07-13T07:34:53.914Z,26.53
2018-07-13T07:39:54.864Z,26.62
2018-07-13T07:44:49.717Z,26.49
2018-07-13T07:49:44.158Z,25.79
2018-07-13T07:54:38.564Z,26.09
2018-07-13T07:59:33.056Z,26.32
2018-07-13T08:04:27.883Z,25.73
2018-07-13T08:09:22.617Z,26.03
2018-07-13T08:14:17.781Z,26.36
2018-07-13T08:19:12.618Z,26.56
2018-07-13T08:24:07.811Z,26.29
2018-07-13T08:29:03.249Z,26.65
2018-07-13T08:33:57.415Z,26.72
2018-07-13T08:38:52.216Z,26.82
2018-07-13T08:43:47.103Z,27.09
2018-07-13T08:48:41.825Z,26.93
2018-07-13T08:53:37.019Z,27.47
2018-07-13T08:58:31.524Z,27.19
2018-07-13T09:03:27.329Z,27.32
2018-07-13T09:08:23.126Z,26.85
2018-07-13T09:13:19.202Z,27.12
2018-07-13T09:18:14.045Z,27.27
2018-07-13T09:23:09.035Z,27.20
2018-07-13T09:28:03.930Z,27.05
2018-07-13T09:32:58.838Z,27.43
2018-07-13T09:37:53.461Z,27.82
2018-07-13T09:42:49.168Z,28.07
2018-07-13T09:47:44.473Z,28.42
2018-07-13T09:52:39.703Z,28.56
2018-07-13T09:57:34.456Z,28.40
2018-07-13T10:02:29.020Z,28.29
2018-07-13T10:07:23.709Z,28.13
2018-07-13T10:12:18.161Z,28.48
2018-07-13T10:17:12.694Z,28.14
2018-07-13T10:22:07.203Z,28.23
2018-07-13T10:27:01.820Z,28.83
2018-07-13T10:31:56.584Z,28.66
2018-07-13T10:37:00.480Z,28.33
2018-07-13T10:41:55.148Z,27.34
2018-07-13T10:46:53.325Z,27.88
2018-07-13T10:51:48.799Z,28.64
2018-07-13T10:56:43.207Z,28.74
2018-07-13T11:01:47.566Z,28.39
2018-07-13T11:06:42.677Z,28.74
2018-07-13T11:11:37.644Z,29.12
2018-07-13T11:16:32.281Z,29.21
2018-07-13T11:21:26.788Z,29.44
2018-07-13T11:26:21.236Z,29.68
2018-07-13T11:31:15.512Z,29.98
2018-07-13T11:36:09.697Z,29.67
2018-07-13T11:41:04.535Z,29.74
2018-07-13T11:46:06.650Z,30.02
2018-07-13T11:51:01.855Z,28.94
2018-07-13T11:55:56.381Z,28.97
2018-07-13T12:00:51.015Z,28.42
2018-07-13T12:05:46.127Z,28.63
2018-07-13T12:10:40.557Z,29.15
2018-07-13T12:15:34.775Z,29.04
2018-07-13T12:20:29.252Z,28.80
2018-07-13T12:25:23.749Z,29.28
2018-07-13T12:30:18.244Z,29.82
2018-07-13T12:35:12.694Z,30.15
2018-07-13T12:40:07.269Z,29.40
2018-07-13T12:45:01.904Z,29.78
2018-07-13T12:49:56.399Z,30.30
2018-07-13T12:54:50.606Z,29.75
2018-07-13T12:59:45.092Z,30.09
2018-07-13T13:04:42.710Z,30.01
2018-07-13T13:09:37.544Z,30.09
2018-07-13T13:14:32.209Z,29.63
2018-07-13T13:19:28.036Z,29.48
2018-07-13T13:24:22.785Z,29.48
2018-07-13T13:29:21.970Z,29.28
2018-07-13T13:34:16.401Z,29.77
2018-07-13T13:39:11.193Z,29.10
2018-07-13T13:44:05.629Z,29.10
2018-07-13T13:49:00.068Z,29.65
2018-07-13T13:53:54.323Z,29.71
2018-07-13T13:58:49.548Z,29.65
2018-07-13T14:03:45.677Z,29.67
2018-07-13T14:08:40.660Z,29.68
2018-07-13T14:13:35.605Z,29.83
2018-07-13T14:18:30.525Z,29.59
2018-07-13T14:23:24.752Z,29.88
2018-07-13T14:28:19.269Z,29.89
2018-07-13T14:33:13.837Z,29.91
2018-07-13T14:38:08.326Z,30.01
2018-07-13T14:43:02.935Z,29.76
2018-07-13T14:47:57.681Z,29.45
2018-07-13T14:52:53.172Z,29.64
2018-07-13T14:57:47.807Z,29.69
2018-07-13T15:02:42.080Z,29.71
2018-07-13T15:07:36.845Z,29.82
2018-07-13T15:12:31.046Z,29.57
2018-07-13T15:17:25.569Z,29.37
2018-07-13T15:22:20.117Z,29.48
2018-07-13T15:27:14.572Z,29.67
2018-07-13T15:32:09.252Z,29.66
2018-07-13T15:37:03.741Z,29.85
2018-07-13T15:41:58.324Z,30.16
2018-07-13T15:47:00.090Z,29.87
2018-07-13T15:51:54.893Z,29.95
2018-07-13T15:56:49.837Z,29.90
2018-07-13T16:01:44.408Z,30.02
2018-07-13T16:06:39.471Z,30.15
2018-07-13T16:11:34.097Z,30.10
2018-07-13T16:16:28.681Z,30.00
2018-07-13T16:21:23.252Z,30.04
2018-07-13T16:26:17.843Z,29.86
2018-07-13T16:31:12.473Z,29.92
2018-07-13T16:36:07.149Z,29.69
2018-07-13T16:41:01.697Z,29.84
2018-07-13T16:45:56.279Z,30.03
2018-07-13T16:50:51.008Z,29.86
2018-07-13T16:55:45.652Z,29.71
2018-07-13T17:00:40.574Z,29.18
2018-07-13T17:05:35.141Z,29.31
2018-07-13T17:10:29.735Z,29.21
2018-07-13T17:15:24.272Z,28.84
2018-07-13T17:20:18.879Z,28.90
2018-07-13T17:25:13.525Z,28.44
2018-07-13T17:30:10.180Z,28.58
2018-07-13T17:35:05.134Z,28.35
2018-07-13T17:39:59.332Z,28.52
2018-07-13T17:44:53.944Z,28.54
2018-07-13T17:49:48.701Z,28.23
2018-07-13T17:54:43.493Z,28.31
2018-07-13T17:59:37.802Z,27.87
2018-07-13T18:04:32.038Z,27.87
2018-07-13T18:09:26.666Z,27.71
2018-07-13T18:14:21.188Z,27.53
2018-07-13T18:19:15.976Z,27.48
2018-07-13T18:24:11.150Z,27.51
2018-07-13T18:29:06.085Z,27.53
2018-07-13T18:34:00.625Z,27.32
2018-07-13T18:38:55.233Z,27.13
2018-07-13T18:43:50.481Z,26.96
2018-07-13T18:48:45.005Z,26.90
2018-07-13T18:53:39.560Z,27.91
2018-07-13T18:58:34.070Z,28.73
2018-07-13T19:03:28.718Z,29.12
2018-07-13T19:08:23.272Z,28.70
2018-07-13T19:13:18.246Z,27.93
2018-07-13T19:18:12.938Z,26.82
2018-07-13T19:23:07.476Z,26.16
2018-07-13T19:28:02.184Z,25.45
2018-07-13T19:32:56.681Z,25.21
2018-07-13T19:37:51.864Z,25.02
2018-07-13T19:42:46.649Z,24.87
2018-07-13T19:47:41.184Z,24.64
2018-07-13T19:52:35.841Z,24.46
2018-07-13T19:57:30.704Z,24.12
2018-07-13T20:02:25.223Z,24.01
2018-07-13T20:07:19.843Z,23.86
2018-07-13T20:12:14.449Z,23.67
2018-07-13T20:17:09.392Z,23.56
2018-07-13T20:22:03.916Z,23.56
2018-07-13T20:26:58.729Z,23.54
2018-07-13T20:31:53.257Z,23.51
2018-07-13T20:36:47.809Z,23.44
2018-07-13T20:41:42.048Z,23.38
2018-07-13T20:46:36.584Z,23.32
2018-07-13T20:51:31.113Z,23.25
2018-07-13T20:56:25.701Z,23.22
2018-07-13T21:01:20.312Z,23.11
2018-07-13T21:06:14.855Z,23.03
2018-07-13T21:11:09.390Z,22.93
2018-07-13T21:16:03.925Z,22.83
2018-07-13T21:20:58.612Z,22.78
2018-07-13T21:25:52.834Z,22.75
2018-07-13T21:30:47.394Z,22.77
2018-07-13T21:35:41.941Z,22.81
2018-07-13T21:40:36.490Z,22.84
2018-07-13T21:45:31.097Z,22.83
2018-07-13T21:50:25.682Z,22.73
2018-07-13T21:55:20.808Z,22.69
2018-07-13T22:00:15.409Z,22.67
2018-07-13T22:05:09.951Z,22.62
2018-07-13T22:10:04.431Z,22.56
2018-07-13T22:14:58.981Z,22.53
2018-07-13T22:19:54.116Z,22.47
2018-07-13T22:24:49.058Z,22.40
2018-07-13T22:29:43.585Z,22.36
2018-07-13T22:34:38.177Z,22.34
2018-07-13T22:39:32.696Z,22.33
2018-07-13T22:44:27.228Z,22.28
2018-07-13T22:49:21.765Z,22.27
2018-07-13T22:54:16.275Z,22.19
2018-07-13T22:59:10.847Z,22.17
2018-07-13T23:04:05.395Z,22.14
2018-07-13T23:08:59.892Z,22.06
2018-07-13T23:13:54.368Z,22.02
2018-07-13T23:18:48.921Z,21.97
2018-07-13T23:23:43.481Z,21.88
2018-07-13T23:28:38.005Z,21.87
2018-07-13T23:33:32.490Z,21.88
2018-07-13T23:38:27.001Z,21.97
2018-07-13T23:43:21.509Z,22.00
2018-07-13T23:48:15.980Z,21.81
2018-07-13T23:53:10.453Z,21.69
2018-07-13T23:58:04.928Z,21.40
